createdAt,value
2019-01-31T00:01:56.368Z,39.13
2019-01-31T00:04:31.993Z,39.47
2019-01-31T00:07:19.900Z,40.50
2019-01-31T00:10:06.128Z,41.00
2019-01-31T00:12:35.792Z,39.37
2019-01-31T00:15:11.684Z,40.50
2019-01-31T00:17:56.645Z,41.90
2019-01-31T00:20:26.349Z,39.70
2019-01-31T00:23:08.136Z,41.40
2019-01-31T00:25:55.901Z,37.60
2019-01-31T00:28:34.712Z,40.03
2019-01-31T00:31:10.164Z,36.83
2019-01-31T00:33:39.880Z,39.63
2019-01-31T00:36:09.611Z,38.30
2019-01-31T00:38:39.327Z,41.33
2019-01-31T00:41:09.037Z,36.47
2019-01-31T00:43:57.021Z,39.67
2019-01-31T00:46:29.574Z,39.10
2019-01-31T00:49:08.300Z,38.13
2019-01-31T00:51:49.886Z,41.20
2019-01-31T00:54:19.573Z,39.20
2019-01-31T00:56:49.216Z,40.47
2019-01-31T00:59:31.068Z,36.60
2019-01-31T01:02:03.700Z,43.70
2019-01-31T01:04:33.378Z,42.90
2019-01-31T01:07:06.005Z,38.17
2019-01-31T01:09:47.785Z,40.57
2019-01-31T01:12:26.728Z,39.30
2019-01-31T01:15:02.270Z,39.70
2019-01-31T01:17:34.804Z,42.80
2019-01-31T01:20:31.070Z,41.83
2019-01-31T01:23:03.725Z,42.23
2019-01-31T01:25:36.336Z,41.47
2019-01-31T01:28:09.004Z,41.93
2019-01-31T01:30:55.269Z,41.47
2019-01-31T01:33:33.894Z,41.67
2019-01-31T01:36:15.929Z,40.10
2019-01-31T01:38:52.422Z,39.87
2019-01-31T01:41:31.113Z,42.63
2019-01-31T01:44:06.463Z,37.43
2019-01-31T01:46:48.370Z,39.23
2019-01-31T01:49:20.686Z,39.43
2019-01-31T01:51:50.376Z,39.47
2019-01-31T01:54:23.243Z,38.30
2019-01-31T01:57:04.857Z,40.17
2019-01-31T01:59:37.181Z,36.87
2019-01-31T02:02:15.809Z,39.97
2019-01-31T02:04:57.084Z,37.57
2019-01-31T02:07:29.425Z,40.47
2019-01-31T02:10:02.022Z,41.40
2019-01-31T02:12:34.727Z,38.70
2019-01-31T02:15:19.479Z,36.50
2019-01-31T02:17:54.917Z,36.17
2019-01-31T02:20:27.492Z,37.30
2019-01-31T02:22:57.152Z,37.37
2019-01-31T02:25:44.651Z,37.80
2019-01-31T02:28:14.429Z,38.27
2019-01-31T02:31:01.882Z,42.50
2019-01-31T02:33:46.482Z,35.43
2019-01-31T02:36:31.046Z,38.97
2019-01-31T02:39:09.903Z,40.30
2019-01-31T02:41:39.563Z,40.27
2019-01-31T02:44:11.982Z,36.07
2019-01-31T02:47:06.631Z,37.43
2019-01-31T02:49:36.342Z,41.83
2019-01-31T02:52:34.083Z,37.50
2019-01-31T02:55:03.769Z,41.07
2019-01-31T02:57:36.378Z,37.53
2019-01-31T03:00:11.850Z,39.63
2019-01-31T03:02:50.813Z,36.93
2019-01-31T03:05:20.496Z,32.63
2019-01-31T03:07:52.849Z,37.33
2019-01-31T03:10:25.393Z,33.70
2019-01-31T03:13:00.770Z,34.93
2019-01-31T03:16:05.027Z,39.33
2019-01-31T03:18:40.790Z,36.13
2019-01-31T03:21:10.482Z,42.57
2019-01-31T03:23:58.289Z,39.80
2019-01-31T03:26:27.964Z,33.57
2019-01-31T03:29:00.782Z,37.67
2019-01-31T03:31:33.327Z,36.00
2019-01-31T03:34:03.053Z,38.33
2019-01-31T03:36:50.965Z,35.00
2019-01-31T03:39:37.168Z,37.27
2019-01-31T03:42:15.354Z,35.00
2019-01-31T03:44:45.042Z,36.87
2019-01-31T03:47:20.799Z,34.60
2019-01-31T03:49:53.477Z,34.27
2019-01-31T03:52:29.407Z,33.00
2019-01-31T03:55:08.505Z,35.00
2019-01-31T03:57:41.025Z,37.27
2019-01-31T04:00:16.548Z,37.50
2019-01-31T04:02:46.234Z,29.60
2019-01-31T04:05:18.944Z,36.83
2019-01-31T04:07:47.149Z,34.63
2019-01-31T04:10:19.036Z,35.43
2019-01-31T04:12:45.251Z,34.30
2019-01-31T04:15:13.426Z,32.53
2019-01-31T04:17:41.553Z,39.20
2019-01-31T04:20:09.756Z,33.93
2019-01-31T04:22:37.886Z,33.80
2019-01-31T04:25:06.206Z,37.50
2019-01-31T04:27:34.385Z,35.30
2019-01-31T04:30:02.553Z,31.67
2019-01-31T04:32:30.718Z,36.20
2019-01-31T04:34:58.910Z,33.90
2019-01-31T04:37:27.141Z,32.93
2019-01-31T04:39:55.352Z,30.77
2019-01-31T04:42:23.469Z,29.17
2019-01-31T04:44:51.676Z,30.70
2019-01-31T04:47:19.908Z,28.80
2019-01-31T04:49:48.087Z,31.77
2019-01-31T04:52:16.236Z,32.27
2019-01-31T04:54:44.468Z,30.90
2019-01-31T04:57:12.586Z,35.47
2019-01-31T04:59:40.782Z,31.40
2019-01-31T05:02:08.960Z,31.03
2019-01-31T05:04:37.125Z,31.10
2019-01-31T05:07:05.341Z,31.10
2019-01-31T05:09:33.524Z,28.23
2019-01-31T05:12:01.649Z,26.57
2019-01-31T05:14:29.803Z,27.77
2019-01-31T05:16:57.943Z,27.60
2019-01-31T05:19:26.139Z,32.17
2019-01-31T05:21:54.378Z,28.27
2019-01-31T05:24:22.504Z,29.40
2019-01-31T05:26:50.633Z,28.43
2019-01-31T05:29:18.790Z,30.33
2019-01-31T05:31:46.945Z,30.03
2019-01-31T05:34:15.136Z,27.77
2019-01-31T05:36:43.280Z,30.97
2019-01-31T05:39:11.483Z,28.20
2019-01-31T05:41:39.628Z,26.27
2019-01-31T05:44:07.882Z,29.27
2019-01-31T05:46:36.078Z,28.40
2019-01-31T05:49:04.204Z,29.33
2019-01-31T05:51:32.380Z,28.57
2019-01-31T05:54:00.573Z,30.43
2019-01-31T05:56:28.705Z,28.40
2019-01-31T05:58:56.926Z,27.50
2019-01-31T06:01:25.129Z,25.60
2019-01-31T06:03:53.266Z,27.30
2019-01-31T06:06:21.401Z,28.00
2019-01-31T06:08:49.563Z,26.23
2019-01-31T06:11:17.745Z,26.80
2019-01-31T06:13:45.857Z,27.30
2019-01-31T06:16:14.021Z,30.57
2019-01-31T06:18:42.220Z,29.63
2019-01-31T06:21:10.332Z,23.60
2019-01-31T06:23:38.485Z,27.47
2019-01-31T06:26:06.698Z,24.47
2019-01-31T06:28:34.841Z,28.50
2019-01-31T06:31:03.011Z,26.17
2019-01-31T06:33:31.225Z,25.67
2019-01-31T06:35:59.452Z,28.43
2019-01-31T06:38:27.625Z,24.43
2019-01-31T06:40:55.793Z,26.37
2019-01-31T06:43:23.916Z,27.67
2019-01-31T06:45:52.060Z,25.30
2019-01-31T06:48:20.217Z,27.33
2019-01-31T06:50:48.434Z,26.33
2019-01-31T06:53:16.585Z,24.60
2019-01-31T06:55:44.800Z,27.87
2019-01-31T06:58:12.954Z,27.63
2019-01-31T07:00:44.128Z,31.73
2019-01-31T07:03:12.532Z,28.33
2019-01-31T07:05:40.682Z,29.77
2019-01-31T07:08:09.031Z,26.67
2019-01-31T07:10:37.196Z,33.73
2019-01-31T07:13:05.468Z,35.37
2019-01-31T07:15:33.676Z,33.30
2019-01-31T07:18:01.970Z,31.97
2019-01-31T07:20:30.612Z,24.73
2019-01-31T07:22:59.011Z,28.50
2019-01-31T07:25:27.124Z,29.27
2019-01-31T07:27:55.258Z,33.47
2019-01-31T07:30:26.324Z,31.67
2019-01-31T07:32:53.454Z,27.70
2019-01-31T07:35:22.925Z,25.80
2019-01-31T07:37:52.976Z,30.83
2019-01-31T07:40:22.035Z,24.40
2019-01-31T07:42:50.221Z,28.30
2019-01-31T07:45:19.747Z,28.47
2019-01-31T07:47:47.929Z,30.53
2019-01-31T07:50:19.960Z,28.50
2019-01-31T07:52:48.394Z,28.77
2019-01-31T07:55:24.633Z,34.47
2019-01-31T07:57:52.794Z,33.70
2019-01-31T08:00:22.088Z,44.20
2019-01-31T08:02:50.515Z,43.27
2019-01-31T08:05:19.477Z,27.73
2019-01-31T08:07:48.257Z,27.73
2019-01-31T08:10:17.810Z,27.10
2019-01-31T08:12:46.051Z,26.77
2019-01-31T08:15:15.528Z,27.00
2019-01-31T08:17:43.741Z,30.23
2019-01-31T08:20:13.494Z,23.83
2019-01-31T08:22:41.686Z,25.33
2019-01-31T08:25:11.396Z,45.63
2019-01-31T08:27:39.580Z,31.13
2019-01-31T08:30:09.287Z,28.93
2019-01-31T08:32:37.421Z,30.67
2019-01-31T08:35:05.783Z,32.37
2019-01-31T08:37:33.969Z,29.70
2019-01-31T08:40:02.261Z,29.13
2019-01-31T08:42:30.462Z,25.83
2019-01-31T08:44:58.640Z,30.47
2019-01-31T08:47:26.814Z,25.57
2019-01-31T08:49:54.958Z,27.30
2019-01-31T08:52:23.074Z,26.73
2019-01-31T08:54:52.177Z,28.13
2019-01-31T08:57:20.404Z,29.13
2019-01-31T08:59:48.529Z,31.57
2019-01-31T09:02:16.717Z,24.57
2019-01-31T09:04:45.079Z,26.10
2019-01-31T09:07:13.310Z,27.43
2019-01-31T09:09:41.527Z,22.27
2019-01-31T09:12:15.464Z,26.97
2019-01-31T09:14:39.574Z,23.73
2019-01-31T09:17:07.715Z,30.13
2019-01-31T09:19:35.925Z,26.17
2019-01-31T09:22:04.301Z,25.40
2019-01-31T09:24:41.558Z,26.03
2019-01-31T09:27:11.076Z,23.90
2019-01-31T09:29:43.611Z,26.20
2019-01-31T09:32:13.352Z,27.67
2019-01-31T09:34:45.799Z,26.83
2019-01-31T09:37:21.296Z,27.23
2019-01-31T09:39:53.951Z,25.60
2019-01-31T09:42:27.001Z,27.30
2019-01-31T09:45:08.997Z,26.20
2019-01-31T09:47:38.694Z,23.57
2019-01-31T09:50:08.389Z,26.80
2019-01-31T09:52:38.029Z,21.27
2019-01-31T09:55:07.782Z,23.60
2019-01-31T09:57:53.980Z,26.37
2019-01-31T10:00:35.476Z,22.37
2019-01-31T10:03:05.113Z,23.30
2019-01-31T10:05:44.882Z,34.37
2019-01-31T10:08:31.131Z,23.17
2019-01-31T10:11:10.160Z,21.67
2019-01-31T10:13:42.735Z,21.83
2019-01-31T10:16:12.589Z,25.27
2019-01-31T10:18:47.980Z,24.80
2019-01-31T10:21:28.062Z,21.33
2019-01-31T10:24:06.686Z,25.50
2019-01-31T10:26:52.954Z,26.27
2019-01-31T10:29:28.616Z,21.80
2019-01-31T10:32:15.140Z,22.57
2019-01-31T10:34:44.829Z,20.83
2019-01-31T10:37:32.563Z,22.00
2019-01-31T10:40:18.877Z,20.70
2019-01-31T10:43:00.515Z,26.13
2019-01-31T10:45:47.061Z,18.57
2019-01-31T10:48:19.913Z,24.13
2019-01-31T10:51:07.900Z,22.73
2019-01-31T10:53:37.660Z,24.90
2019-01-31T10:56:25.563Z,24.90
2019-01-31T10:58:55.253Z,20.23
2019-01-31T11:01:24.915Z,23.30
2019-01-31T11:03:57.527Z,23.43
2019-01-31T11:06:43.964Z,20.90
2019-01-31T11:09:31.080Z,16.80
2019-01-31T11:12:03.502Z,21.53
2019-01-31T11:14:39.160Z,21.40
2019-01-31T11:17:26.660Z,18.17
2019-01-31T11:19:56.407Z,21.07
2019-01-31T11:22:32.057Z,18.37
2019-01-31T11:25:26.787Z,18.77
2019-01-31T11:28:05.270Z,18.47
2019-01-31T11:30:37.877Z,20.13
2019-01-31T11:33:15.098Z,19.20
2019-01-31T11:35:56.957Z,20.40
2019-01-31T11:38:26.730Z,18.93
2019-01-31T11:40:56.416Z,18.77
2019-01-31T11:43:31.985Z,19.47
2019-01-31T11:46:07.388Z,18.67
2019-01-31T11:48:37.096Z,17.90
2019-01-31T11:51:22.151Z,18.17
2019-01-31T11:53:51.864Z,16.17
2019-01-31T11:56:24.205Z,17.57
2019-01-31T11:58:59.579Z,17.57
2019-01-31T12:01:28.107Z,18.23
2019-01-31T12:03:57.393Z,19.47
2019-01-31T12:06:25.737Z,23.33
2019-01-31T12:08:54.116Z,16.23
2019-01-31T12:11:22.347Z,15.90
2019-01-31T12:13:50.505Z,17.70
2019-01-31T12:16:18.771Z,15.93
2019-01-31T12:18:46.975Z,16.60
2019-01-31T12:21:15.286Z,20.33
2019-01-31T12:23:43.487Z,14.23
2019-01-31T12:26:13.936Z,13.07
2019-01-31T12:28:41.453Z,11.90
2019-01-31T12:31:09.683Z,16.77
2019-01-31T12:33:37.998Z,15.67
2019-01-31T12:36:06.581Z,13.73
2019-01-31T12:38:37.016Z,12.13
2019-01-31T12:41:04.702Z,13.07
2019-01-31T12:43:35.134Z,10.30
2019-01-31T12:46:02.757Z,12.63
2019-01-31T12:48:30.961Z,12.17
2019-01-31T12:50:59.104Z,17.30
2019-01-31T12:53:27.345Z,12.90
2019-01-31T12:55:55.504Z,11.13
2019-01-31T12:58:33.341Z,11.73
2019-01-31T13:00:53.555Z,11.63
2019-01-31T13:03:21.795Z,12.47
2019-01-31T13:05:50.004Z,10.07
2019-01-31T13:08:18.278Z,11.77
2019-01-31T13:10:46.464Z,9.17
2019-01-31T13:13:14.697Z,10.97
2019-01-31T13:15:43.011Z,11.83
2019-01-31T13:18:11.393Z,11.33
2019-01-31T13:20:39.634Z,10.57
2019-01-31T13:23:07.937Z,12.77
2019-01-31T13:25:36.119Z,12.47
2019-01-31T13:28:04.436Z,12.63
2019-01-31T13:30:32.685Z,12.20
2019-01-31T13:33:02.362Z,13.63
2019-01-31T13:35:30.687Z,12.73
2019-01-31T13:37:58.836Z,13.40
2019-01-31T13:40:37.725Z,12.80
2019-01-31T13:42:57.329Z,15.13
2019-01-31T13:45:27.001Z,12.00
2019-01-31T13:47:55.173Z,13.37
2019-01-31T13:50:23.430Z,12.97
2019-01-31T13:52:52.279Z,15.43
2019-01-31T13:55:22.054Z,14.37
2019-01-31T13:57:50.226Z,13.03
2019-01-31T14:00:19.531Z,14.17
2019-01-31T14:02:47.737Z,12.87
2019-01-31T14:05:16.074Z,13.63
2019-01-31T14:07:44.278Z,12.73
2019-01-31T14:10:14.446Z,16.00
2019-01-31T14:12:42.668Z,14.63
2019-01-31T14:15:15.424Z,12.20
2019-01-31T14:17:43.641Z,13.20
2019-01-31T14:20:13.364Z,18.67
2019-01-31T14:22:43.102Z,20.87
2019-01-31T14:25:11.746Z,28.43
2019-01-31T14:27:40.496Z,13.80
2019-01-31T14:30:10.144Z,13.30
2019-01-31T14:32:38.561Z,19.50
2019-01-31T14:35:08.293Z,15.47
2019-01-31T14:37:36.549Z,15.70
2019-01-31T14:40:06.361Z,17.10
2019-01-31T14:42:34.695Z,17.77
2019-01-31T14:45:03.071Z,14.17
2019-01-31T14:47:31.271Z,12.27
2019-01-31T14:50:06.227Z,16.13
2019-01-31T14:52:34.454Z,14.17
2019-01-31T14:55:02.896Z,17.97
2019-01-31T14:57:31.174Z,16.00
2019-01-31T14:59:59.278Z,13.97
2019-01-31T15:02:27.464Z,16.03
2019-01-31T15:04:55.633Z,23.80
2019-01-31T15:07:23.899Z,14.20
2019-01-31T15:09:53.730Z,14.60
2019-01-31T15:12:21.867Z,13.83
2019-01-31T15:14:50.027Z,16.50
2019-01-31T15:17:18.249Z,14.13
2019-01-31T15:19:46.377Z,12.87
2019-01-31T15:22:14.591Z,20.47
2019-01-31T15:24:42.868Z,18.90
2019-01-31T15:27:11.065Z,16.17
2019-01-31T15:29:39.233Z,16.47
2019-01-31T15:32:07.413Z,23.57
2019-01-31T15:34:35.583Z,22.00
2019-01-31T15:37:03.740Z,15.53
2019-01-31T15:39:31.930Z,19.10
2019-01-31T15:42:00.174Z,18.10
2019-01-31T15:44:28.385Z,20.43
2019-01-31T15:46:56.626Z,24.13
2019-01-31T15:49:24.928Z,20.63
2019-01-31T15:51:53.250Z,21.80
2019-01-31T15:54:21.482Z,21.60
2019-01-31T15:56:49.686Z,22.03
2019-01-31T15:59:17.898Z,22.83
2019-01-31T16:01:46.050Z,20.00
2019-01-31T16:04:14.211Z,22.13
2019-01-31T16:06:42.496Z,20.20
2019-01-31T16:09:10.697Z,21.50
2019-01-31T16:11:39.031Z,21.07
2019-01-31T16:14:07.258Z,32.33
2019-01-31T16:16:35.497Z,23.70
2019-01-31T16:19:03.874Z,31.10
2019-01-31T16:21:32.080Z,24.73
2019-01-31T16:24:00.309Z,36.23
2019-01-31T16:26:28.547Z,20.77
2019-01-31T16:28:56.911Z,25.67
2019-01-31T16:31:25.194Z,19.73
2019-01-31T16:33:53.375Z,26.70
2019-01-31T16:36:21.525Z,22.70
2019-01-31T16:38:49.764Z,29.93
2019-01-31T16:41:17.933Z,19.20
2019-01-31T16:43:46.173Z,21.57
2019-01-31T16:46:14.364Z,22.47
2019-01-31T16:48:42.523Z,19.63
2019-01-31T16:51:10.741Z,24.07
2019-01-31T16:53:38.977Z,26.37
2019-01-31T16:56:07.145Z,24.80
2019-01-31T16:58:35.296Z,27.13
2019-01-31T17:01:04.215Z,28.43
2019-01-31T17:03:32.397Z,29.30
2019-01-31T17:06:00.566Z,33.23
2019-01-31T17:08:28.741Z,27.87
2019-01-31T17:10:58.421Z,29.37
2019-01-31T17:13:28.481Z,33.70
2019-01-31T17:15:56.480Z,27.67
2019-01-31T17:18:24.755Z,29.40
2019-01-31T17:20:52.899Z,30.17
2019-01-31T17:23:21.128Z,32.83
2019-01-31T17:25:49.284Z,32.93
2019-01-31T17:28:17.482Z,29.77
2019-01-31T17:30:45.725Z,32.47
2019-01-31T17:33:15.625Z,31.87
2019-01-31T17:35:43.769Z,34.67
2019-01-31T17:38:11.927Z,31.73
2019-01-31T17:40:40.543Z,31.03
2019-01-31T17:43:08.767Z,31.53
2019-01-31T17:45:36.956Z,34.63
2019-01-31T17:48:05.737Z,34.60
2019-01-31T17:50:33.908Z,35.70
2019-01-31T17:53:02.032Z,39.50
2019-01-31T17:55:30.143Z,40.37
2019-01-31T17:57:58.311Z,33.20
2019-01-31T18:00:29.691Z,37.43
2019-01-31T18:02:57.829Z,39.73
2019-01-31T18:05:25.944Z,42.83
2019-01-31T18:07:54.112Z,37.43
2019-01-31T18:10:22.865Z,38.57
2019-01-31T18:12:51.111Z,37.40
2019-01-31T18:15:19.310Z,42.73
2019-01-31T18:17:47.463Z,63.87
2019-01-31T18:20:22.611Z,43.60
2019-01-31T18:22:51.007Z,61.03
2019-01-31T18:25:19.129Z,39.67
2019-01-31T18:27:47.370Z,41.73
2019-01-31T18:30:25.816Z,45.33
2019-01-31T18:32:54.024Z,43.13
2019-01-31T18:35:22.193Z,42.33
2019-01-31T18:37:50.410Z,49.97
2019-01-31T18:40:20.528Z,43.20
2019-01-31T18:42:48.668Z,38.73
2019-01-31T18:45:18.483Z,39.40
2019-01-31T18:47:46.649Z,41.43
2019-01-31T18:50:16.360Z,41.10
2019-01-31T18:52:47.490Z,69.47
2019-01-31T18:55:15.731Z,40.63
2019-01-31T18:57:43.963Z,42.50
2019-01-31T19:00:21.397Z,43.97
2019-01-31T19:02:49.568Z,40.57
2019-01-31T19:05:17.699Z,42.57
2019-01-31T19:07:45.929Z,48.37
2019-01-31T19:10:15.054Z,39.20
2019-01-31T19:12:43.194Z,44.47
2019-01-31T19:15:13.048Z,48.13
2019-01-31T19:17:41.266Z,55.10
2019-01-31T19:20:11.031Z,43.07
2019-01-31T19:22:39.289Z,45.30
2019-01-31T19:25:07.731Z,43.47
2019-01-31T19:27:35.882Z,44.03
2019-01-31T19:30:05.617Z,45.13
2019-01-31T19:32:33.740Z,56.57
2019-01-31T19:35:01.905Z,46.07
2019-01-31T19:37:30.149Z,53.30
2019-01-31T19:39:58.268Z,40.20
2019-01-31T19:42:26.385Z,47.00
2019-01-31T19:44:54.712Z,41.93
2019-01-31T19:47:22.845Z,46.10
2019-01-31T19:49:51.041Z,43.80
2019-01-31T19:52:19.146Z,40.67
2019-01-31T19:54:47.283Z,49.43
2019-01-31T19:57:15.434Z,94.67
2019-01-31T19:59:43.556Z,51.27
2019-01-31T20:02:11.737Z,46.93
2019-01-31T20:04:39.938Z,48.10
2019-01-31T20:07:08.037Z,45.90
2019-01-31T20:09:36.215Z,45.57
2019-01-31T20:12:04.786Z,46.37
2019-01-31T20:14:32.979Z,44.57
2019-01-31T20:17:01.114Z,46.73
2019-01-31T20:19:29.325Z,48.03
2019-01-31T20:21:58.717Z,42.50
2019-01-31T20:24:26.877Z,47.50
2019-01-31T20:26:55.038Z,46.53
2019-01-31T20:29:23.262Z,47.77
2019-01-31T20:31:51.572Z,46.40
2019-01-31T20:34:19.706Z,46.17
2019-01-31T20:36:47.881Z,43.03
2019-01-31T20:39:16.076Z,44.97
2019-01-31T20:41:53.786Z,45.53
2019-01-31T20:44:15.223Z,47.07
2019-01-31T20:46:43.357Z,44.57
2019-01-31T20:49:11.529Z,43.87
2019-01-31T20:51:39.714Z,47.37
2019-01-31T20:54:07.879Z,42.87
2019-01-31T20:56:36.152Z,46.97
2019-01-31T20:59:05.904Z,45.67
2019-01-31T21:01:34.118Z,47.40
2019-01-31T21:04:02.362Z,43.27
2019-01-31T21:06:40.332Z,45.77
2019-01-31T21:09:00.649Z,45.70
2019-01-31T21:11:28.829Z,46.50
2019-01-31T21:13:57.166Z,49.40
2019-01-31T21:16:25.683Z,49.23
2019-01-31T21:18:53.928Z,46.80
2019-01-31T21:21:22.197Z,52.20
2019-01-31T21:23:50.617Z,54.23
2019-01-31T21:26:18.911Z,52.07
2019-01-31T21:28:47.072Z,53.00
2019-01-31T21:31:15.280Z,48.43
2019-01-31T21:33:43.424Z,55.50
2019-01-31T21:36:11.544Z,52.73
2019-01-31T21:38:39.693Z,53.87
2019-01-31T21:41:07.861Z,57.30
2019-01-31T21:43:36.314Z,50.80
2019-01-31T21:46:04.448Z,50.43
2019-01-31T21:48:32.968Z,50.13
2019-01-31T21:51:01.138Z,61.70
2019-01-31T21:53:29.345Z,72.67
2019-01-31T21:55:57.605Z,59.80
2019-01-31T21:58:25.814Z,52.53
2019-01-31T22:00:54.008Z,53.10
2019-01-31T22:03:22.223Z,59.13
2019-01-31T22:05:50.451Z,55.20
2019-01-31T22:08:18.683Z,53.80
2019-01-31T22:10:46.876Z,52.50
2019-01-31T22:13:15.069Z,56.63
2019-01-31T22:15:43.251Z,56.63
2019-01-31T22:18:11.477Z,53.67
2019-01-31T22:20:39.659Z,54.97
2019-01-31T22:23:07.814Z,56.93
2019-01-31T22:25:36.014Z,51.40
2019-01-31T22:28:04.520Z,55.03
2019-01-31T22:30:33.742Z,53.03
2019-01-31T22:33:01.998Z,55.33
2019-01-31T22:35:30.197Z,55.80
2019-01-31T22:37:58.471Z,54.23
2019-01-31T22:40:26.640Z,52.23
2019-01-31T22:42:54.782Z,53.30
2019-01-31T22:45:23.426Z,54.07
2019-01-31T22:47:52.081Z,54.77
2019-01-31T22:50:21.094Z,57.60
2019-01-31T22:52:49.284Z,56.50
2019-01-31T22:55:18.984Z,52.40
2019-01-31T22:57:47.585Z,61.67
2019-01-31T23:00:38.952Z,59.30
2019-01-31T23:03:07.157Z,55.20
2019-01-31T23:05:35.332Z,54.07
2019-01-31T23:08:03.478Z,55.57
2019-01-31T23:10:31.647Z,52.27
2019-01-31T23:12:59.817Z,54.63
2019-01-31T23:15:28.006Z,55.13
2019-01-31T23:17:56.137Z,54.10
2019-01-31T23:20:24.255Z,50.70
2019-01-31T23:22:52.394Z,55.57
2019-01-31T23:25:20.582Z,52.47
2019-01-31T23:27:48.833Z,55.37
2019-01-31T23:30:17.056Z,54.40
2019-01-31T23:32:45.253Z,57.40
2019-01-31T23:35:13.936Z,56.00
2019-01-31T23:37:42.076Z,49.93
2019-01-31T23:40:11.056Z,57.20
2019-01-31T23:42:39.237Z,55.60
2019-01-31T23:45:08.905Z,54.27
2019-01-31T23:47:48.070Z,53.43
2019-01-31T23:50:08.456Z,58.47
2019-01-31T23:52:36.568Z,54.97
2019-01-31T23:55:06.287Z,58.00
2019-01-31T23:57:34.443Z,60.17
